sensor_id;sensor_type;location;lat;lon;timestamp;temperature;humidity
46562;DHT22;32289;42.688;23.330;2022-12-07T00:02:25;5.00;99.90
46562;DHT22;32289;42.688;23.330;2022-12-07T00:06:07;4.90;99.90
46562;DHT22;32289;42.688;23.330;2022-12-07T00:09:48;5.00;99.90
46562;DHT22;32289;42.688;23.330;2022-12-07T00:13:31;4.80;99.90
46562;DHT22;32289;42.688;23.330;2022-12-07T00:17:12;5.00;99.90
46562;DHT22;32289;42.688;23.330;2022-12-07T00:20:52;5.10;99.90
46562;DHT22;32289;42.688;23.330;2022-12-07T00:24:33;5.10;99.90
46562;DHT22;32289;42.688;23.330;2022-12-07T00:28:14;5.10;99.90
46562;DHT22;32289;42.688;23.330;2022-12-07T00:31:54;5.20;99.90
46562;DHT22;32289;42.688;23.330;2022-12-07T00:35:35;5.20;99.90
46562;DHT22;32289;42.688;23.330;2022-12-07T00:39:16;5.30;99.90
46562;DHT22;32289;42.688;23.330;2022-12-07T00:42:57;5.20;99.90
46562;DHT22;32289;42.688;23.330;2022-12-07T00:46:38;5.40;99.90
46562;DHT22;32289;42.688;23.330;2022-12-07T00:50:18;5.30;99.90
46562;DHT22;32289;42.688;23.330;2022-12-07T00:53:59;5.20;99.90
46562;DHT22;32289;42.688;23.330;2022-12-07T00:57:39;5.20;99.90
46562;DHT22;32289;42.688;23.330;2022-12-07T01:01:20;5.20;99.90
46562;DHT22;32289;42.688;23.330;2022-12-07T01:05:01;5.10;99.90
46562;DHT22;32289;42.688;23.330;2022-12-07T01:08:42;5.30;99.90
46562;DHT22;32289;42.688;23.330;2022-12-07T01:12:23;5.30;99.90
46562;DHT22;32289;42.688;23.330;2022-12-07T01:16:05;5.30;99.90
46562;DHT22;32289;42.688;23.330;2022-12-07T01:19:46;5.30;99.90
46562;DHT22;32289;42.688;23.330;2022-12-07T01:23:27;5.40;99.90
46562;DHT22;32289;42.688;23.330;2022-12-07T01:27:08;5.40;99.90
46562;DHT22;32289;42.688;23.330;2022-12-07T01:31:10;5.40;99.90
46562;DHT22;32289;42.688;23.330;2022-12-07T01:34:57;5.40;99.90
46562;DHT22;32289;42.688;23.330;2022-12-07T01:38:38;5.20;99.90
46562;DHT22;32289;42.688;23.330;2022-12-07T01:42:19;5.30;99.90
46562;DHT22;32289;42.688;23.330;2022-12-07T01:46:00;5.20;99.90
46562;DHT22;32289;42.688;23.330;2022-12-07T01:49:44;5.20;99.90
46562;DHT22;32289;42.688;23.330;2022-12-07T01:53:28;5.30;99.90
46562;DHT22;32289;42.688;23.330;2022-12-07T01:57:10;5.30;99.90
46562;DHT22;32289;42.688;23.330;2022-12-07T02:00:52;5.30;99.90
46562;DHT22;32289;42.688;23.330;2022-12-07T02:04:33;5.30;99.90
46562;DHT22;32289;42.688;23.330;2022-12-07T02:08:16;5.20;99.90
46562;DHT22;32289;42.688;23.330;2022-12-07T02:11:58;5.20;99.90
46562;DHT22;32289;42.688;23.330;2022-12-07T02:35:48;5.30;99.90
46562;DHT22;32289;42.688;23.330;2022-12-07T02:40:02;5.30;99.90
46562;DHT22;32289;42.688;23.330;2022-12-07T02:43:57;5.30;99.90
46562;DHT22;32289;42.688;23.330;2022-12-07T02:47:39;5.30;99.90
46562;DHT22;32289;42.688;23.330;2022-12-07T02:51:21;5.10;99.90
46562;DHT22;32289;42.688;23.330;2022-12-07T02:55:03;5.10;99.90
46562;DHT22;32289;42.688;23.330;2022-12-07T03:03:14;5.00;99.90
46562;DHT22;32289;42.688;23.330;2022-12-07T03:11:06;4.70;99.90
46562;DHT22;32289;42.688;23.330;2022-12-07T03:15:00;4.80;99.90
46562;DHT22;32289;42.688;23.330;2022-12-07T03:18:55;4.70;99.90
46562;DHT22;32289;42.688;23.330;2022-12-07T03:22:38;4.60;99.90
46562;DHT22;32289;42.688;23.330;2022-12-07T03:26:23;4.60;99.90
46562;DHT22;32289;42.688;23.330;2022-12-07T03:30:07;4.60;99.90
46562;DHT22;32289;42.688;23.330;2022-12-07T03:41:43;4.70;99.90
46562;DHT22;32289;42.688;23.330;2022-12-07T03:45:47;4.70;99.90
46562;DHT22;32289;42.688;23.330;2022-12-07T03:53:22;4.70;99.90
46562;DHT22;32289;42.688;23.330;2022-12-07T03:57:06;4.60;99.90
46562;DHT22;32289;42.688;23.330;2022-12-07T04:00:49;4.70;99.90
46562;DHT22;32289;42.688;23.330;2022-12-07T04:04:29;4.60;99.90
46562;DHT22;32289;42.688;23.330;2022-12-07T04:08:10;4.50;99.90
46562;DHT22;32289;42.688;23.330;2022-12-07T04:11:51;4.50;99.90
46562;DHT22;32289;42.688;23.330;2022-12-07T04:15:32;4.50;99.90
46562;DHT22;32289;42.688;23.330;2022-12-07T04:19:13;4.50;99.90
46562;DHT22;32289;42.688;23.330;2022-12-07T04:22:53;4.50;99.90
46562;DHT22;32289;42.688;23.330;2022-12-07T04:26:34;4.50;99.90
46562;DHT22;32289;42.688;23.330;2022-12-07T04:30:15;4.60;99.90
46562;DHT22;32289;42.688;23.330;2022-12-07T04:33:56;4.60;99.90
46562;DHT22;32289;42.688;23.330;2022-12-07T04:37:36;4.70;99.90
46562;DHT22;32289;42.688;23.330;2022-12-07T04:41:19;4.70;99.90
46562;DHT22;32289;42.688;23.330;2022-12-07T04:45:07;4.60;99.90
46562;DHT22;32289;42.688;23.330;2022-12-07T04:48:48;4.50;99.90
46562;DHT22;32289;42.688;23.330;2022-12-07T04:52:29;4.50;99.90
46562;DHT22;32289;42.688;23.330;2022-12-07T04:56:10;4.50;99.90
46562;DHT22;32289;42.688;23.330;2022-12-07T04:59:50;4.50;99.90
46562;DHT22;32289;42.688;23.330;2022-12-07T05:03:31;4.40;99.90
46562;DHT22;32289;42.688;23.330;2022-12-07T05:07:12;4.40;99.90
46562;DHT22;32289;42.688;23.330;2022-12-07T05:10:52;4.30;99.90
46562;DHT22;32289;42.688;23.330;2022-12-07T05:14:33;4.20;99.90
46562;DHT22;32289;42.688;23.330;2022-12-07T05:18:14;4.20;99.90
46562;DHT22;32289;42.688;23.330;2022-12-07T05:21:55;4.20;99.90
46562;DHT22;32289;42.688;23.330;2022-12-07T05:25:36;4.10;99.90
46562;DHT22;32289;42.688;23.330;2022-12-07T05:29:17;4.10;99.90
46562;DHT22;32289;42.688;23.330;2022-12-07T05:32:58;4.10;99.90
46562;DHT22;32289;42.688;23.330;2022-12-07T05:36:38;4.20;99.90
46562;DHT22;32289;42.688;23.330;2022-12-07T05:40:19;4.30;99.90
46562;DHT22;32289;42.688;23.330;2022-12-07T05:44:00;4.30;99.90
46562;DHT22;32289;42.688;23.330;2022-12-07T05:47:41;4.30;99.90
46562;DHT22;32289;42.688;23.330;2022-12-07T05:51:22;4.20;99.90
46562;DHT22;32289;42.688;23.330;2022-12-07T05:55:03;4.20;99.90
46562;DHT22;32289;42.688;23.330;2022-12-07T05:58:43;4.10;99.90
46562;DHT22;32289;42.688;23.330;2022-12-07T06:02:43;4.20;99.90
46562;DHT22;32289;42.688;23.330;2022-12-07T06:06:23;6.00;99.90
46562;DHT22;32289;42.688;23.330;2022-12-07T06:10:04;6.30;99.90
46562;DHT22;32289;42.688;23.330;2022-12-07T06:13:45;5.10;99.90
46562;DHT22;32289;42.688;23.330;2022-12-07T06:17:26;4.70;99.90
46562;DHT22;32289;42.688;23.330;2022-12-07T06:21:06;4.50;99.90
46562;DHT22;32289;42.688;23.330;2022-12-07T06:24:47;4.50;99.90
46562;DHT22;32289;42.688;23.330;2022-12-07T06:28:28;4.70;99.90
46562;DHT22;32289;42.688;23.330;2022-12-07T06:32:08;4.80;99.90
46562;DHT22;32289;42.688;23.330;2022-12-07T06:35:49;4.80;99.90
46562;DHT22;32289;42.688;23.330;2022-12-07T06:39:30;4.90;99.90
46562;DHT22;32289;42.688;23.330;2022-12-07T06:43:11;4.80;99.90
46562;DHT22;32289;42.688;23.330;2022-12-07T06:46:52;4.70;99.90
46562;DHT22;32289;42.688;23.330;2022-12-07T06:50:33;4.90;99.90
46562;DHT22;32289;42.688;23.330;2022-12-07T06:54:15;4.90;99.90
46562;DHT22;32289;42.688;23.330;2022-12-07T06:57:55;4.90;99.90
46562;DHT22;32289;42.688;23.330;2022-12-07T07:01:36;5.20;99.90
46562;DHT22;32289;42.688;23.330;2022-12-07T07:05:17;5.30;99.90
46562;DHT22;32289;42.688;23.330;2022-12-07T07:08:58;5.20;99.90
46562;DHT22;32289;42.688;23.330;2022-12-07T07:12:38;5.30;99.90
46562;DHT22;32289;42.688;23.330;2022-12-07T07:16:19;5.40;99.90
46562;DHT22;32289;42.688;23.330;2022-12-07T07:20:00;5.70;99.90
46562;DHT22;32289;42.688;23.330;2022-12-07T07:23:41;6.10;99.90
46562;DHT22;32289;42.688;23.330;2022-12-07T07:27:21;6.00;99.90
46562;DHT22;32289;42.688;23.330;2022-12-07T07:31:02;6.00;99.90
46562;DHT22;32289;42.688;23.330;2022-12-07T07:34:43;5.90;99.90
46562;DHT22;32289;42.688;23.330;2022-12-07T07:38:23;6.30;99.90
46562;DHT22;32289;42.688;23.330;2022-12-07T07:42:04;6.10;99.90
46562;DHT22;32289;42.688;23.330;2022-12-07T07:45:45;6.70;99.90
46562;DHT22;32289;42.688;23.330;2022-12-07T07:49:26;6.00;99.90
46562;DHT22;32289;42.688;23.330;2022-12-07T07:53:07;6.00;99.90
46562;DHT22;32289;42.688;23.330;2022-12-07T07:56:48;5.60;99.90
46562;DHT22;32289;42.688;23.330;2022-12-07T08:00:29;5.70;99.90
46562;DHT22;32289;42.688;23.330;2022-12-07T08:04:10;6.10;99.90
46562;DHT22;32289;42.688;23.330;2022-12-07T08:07:50;6.30;99.90
46562;DHT22;32289;42.688;23.330;2022-12-07T08:11:31;6.40;99.90
46562;DHT22;32289;42.688;23.330;2022-12-07T08:15:12;6.00;99.90
46562;DHT22;32289;42.688;23.330;2022-12-07T08:18:53;5.70;99.90
46562;DHT22;32289;42.688;23.330;2022-12-07T08:22:34;5.70;99.90
46562;DHT22;32289;42.688;23.330;2022-12-07T08:26:16;6.00;99.90
46562;DHT22;32289;42.688;23.330;2022-12-07T08:29:56;6.10;99.90
46562;DHT22;32289;42.688;23.330;2022-12-07T08:33:38;6.40;99.90
46562;DHT22;32289;42.688;23.330;2022-12-07T08:37:18;6.50;99.90
46562;DHT22;32289;42.688;23.330;2022-12-07T08:40:59;6.20;99.90
46562;DHT22;32289;42.688;23.330;2022-12-07T08:44:40;6.50;99.90
46562;DHT22;32289;42.688;23.330;2022-12-07T08:48:21;6.50;99.90
46562;DHT22;32289;42.688;23.330;2022-12-07T08:52:05;6.30;99.90
46562;DHT22;32289;42.688;23.330;2022-12-07T08:55:46;6.20;99.90
46562;DHT22;32289;42.688;23.330;2022-12-07T08:59:28;7.20;99.90
46562;DHT22;32289;42.688;23.330;2022-12-07T09:03:09;7.10;99.90
46562;DHT22;32289;42.688;23.330;2022-12-07T09:06:50;7.10;99.90
46562;DHT22;32289;42.688;23.330;2022-12-07T09:10:31;8.40;99.90
46562;DHT22;32289;42.688;23.330;2022-12-07T09:14:12;8.90;99.90
46562;DHT22;32289;42.688;23.330;2022-12-07T09:17:53;9.40;99.90
46562;DHT22;32289;42.688;23.330;2022-12-07T09:21:34;10.70;99.90
46562;DHT22;32289;42.688;23.330;2022-12-07T09:25:14;9.40;99.90
46562;DHT22;32289;42.688;23.330;2022-12-07T09:28:55;8.60;99.90
46562;DHT22;32289;42.688;23.330;2022-12-07T09:32:36;7.60;99.90
46562;DHT22;32289;42.688;23.330;2022-12-07T09:36:17;7.40;99.90
46562;DHT22;32289;42.688;23.330;2022-12-07T09:39:57;7.30;99.90
46562;DHT22;32289;42.688;23.330;2022-12-07T09:43:39;7.20;99.90
46562;DHT22;32289;42.688;23.330;2022-12-07T09:47:20;7.70;99.90
46562;DHT22;32289;42.688;23.330;2022-12-07T09:51:01;7.90;99.90
46562;DHT22;32289;42.688;23.330;2022-12-07T09:54:46;8.10;99.90
46562;DHT22;32289;42.688;23.330;2022-12-07T09:58:30;8.10;99.90
46562;DHT22;32289;42.688;23.330;2022-12-07T10:02:28;7.80;99.90
46562;DHT22;32289;42.688;23.330;2022-12-07T10:06:12;8.00;99.90
46562;DHT22;32289;42.688;23.330;2022-12-07T10:09:54;8.00;99.90
46562;DHT22;32289;42.688;23.330;2022-12-07T10:13:43;8.30;99.90
46562;DHT22;32289;42.688;23.330;2022-12-07T10:17:33;8.20;99.90
46562;DHT22;32289;42.688;23.330;2022-12-07T10:25:08;8.30;99.90
46562;DHT22;32289;42.688;23.330;2022-12-07T10:28:49;8.30;99.90
46562;DHT22;32289;42.688;23.330;2022-12-07T10:32:32;8.40;99.90
46562;DHT22;32289;42.688;23.330;2022-12-07T10:36:18;8.60;99.90
46562;DHT22;32289;42.688;23.330;2022-12-07T10:39:59;8.30;99.90
46562;DHT22;32289;42.688;23.330;2022-12-07T10:43:47;8.30;99.90
46562;DHT22;32289;42.688;23.330;2022-12-07T10:47:35;8.30;99.90
46562;DHT22;32289;42.688;23.330;2022-12-07T11:15:02;9.00;99.90
46562;DHT22;32289;42.688;23.330;2022-12-07T11:19:28;8.70;99.90
46562;DHT22;32289;42.688;23.330;2022-12-07T11:23:13;9.00;99.90
46562;DHT22;32289;42.688;23.330;2022-12-07T11:38:55;9.50;99.90
46562;DHT22;32289;42.688;23.330;2022-12-07T11:42:42;9.60;99.90
46562;DHT22;32289;42.688;23.330;2022-12-07T11:46:28;9.30;99.90
46562;DHT22;32289;42.688;23.330;2022-12-07T11:54:30;9.00;99.90
46562;DHT22;32289;42.688;23.330;2022-12-07T11:58:19;9.00;99.90
46562;DHT22;32289;42.688;23.330;2022-12-07T12:02:16;9.10;99.90
46562;DHT22;32289;42.688;23.330;2022-12-07T12:05:58;9.40;99.90
46562;DHT22;32289;42.688;23.330;2022-12-07T12:09:59;9.40;99.90
46562;DHT22;32289;42.688;23.330;2022-12-07T12:21:57;9.30;99.90
46562;DHT22;32289;42.688;23.330;2022-12-07T12:25:50;9.10;99.90
46562;DHT22;32289;42.688;23.330;2022-12-07T12:29:39;9.30;99.90
46562;DHT22;32289;42.688;23.330;2022-12-07T12:33:27;9.40;99.90
46562;DHT22;32289;42.688;23.330;2022-12-07T12:45:39;9.70;99.90
46562;DHT22;32289;42.688;23.330;2022-12-07T12:53:25;9.80;99.90
46562;DHT22;32289;42.688;23.330;2022-12-07T13:00:49;10.20;99.90
46562;DHT22;32289;42.688;23.330;2022-12-07T13:04:55;9.70;99.90
46562;DHT22;32289;42.688;23.330;2022-12-07T13:08:40;10.00;99.90
46562;DHT22;32289;42.688;23.330;2022-12-07T13:12:21;10.40;99.90
46562;DHT22;32289;42.688;23.330;2022-12-07T13:19:53;10.30;99.90
46562;DHT22;32289;42.688;23.330;2022-12-07T13:23:38;10.40;99.90
46562;DHT22;32289;42.688;23.330;2022-12-07T13:27:19;10.20;99.90
46562;DHT22;32289;42.688;23.330;2022-12-07T13:31:31;10.20;99.90
46562;DHT22;32289;42.688;23.330;2022-12-07T13:35:30;10.00;99.90
46562;DHT22;32289;42.688;23.330;2022-12-07T13:43:04;10.00;99.90
46562;DHT22;32289;42.688;23.330;2022-12-07T13:50:57;10.00;99.90
46562;DHT22;32289;42.688;23.330;2022-12-07T13:54:45;9.80;99.90
46562;DHT22;32289;42.688;23.330;2022-12-07T13:58:29;9.90;99.90
46562;DHT22;32289;42.688;23.330;2022-12-07T14:06:13;9.90;99.90
46562;DHT22;32289;42.688;23.330;2022-12-07T14:14:05;9.80;99.90
46562;DHT22;32289;42.688;23.330;2022-12-07T14:17:52;9.70;99.90
46562;DHT22;32289;42.688;23.330;2022-12-07T14:21:34;9.70;99.90
46562;DHT22;32289;42.688;23.330;2022-12-07T14:29:39;9.60;99.90
46562;DHT22;32289;42.688;23.330;2022-12-07T14:33:19;9.50;99.90
46562;DHT22;32289;42.688;23.330;2022-12-07T14:37:01;9.40;99.90
46562;DHT22;32289;42.688;23.330;2022-12-07T14:40:42;9.30;99.90
46562;DHT22;32289;42.688;23.330;2022-12-07T14:44:23;9.10;99.90
46562;DHT22;32289;42.688;23.330;2022-12-07T14:48:04;9.10;99.90
46562;DHT22;32289;42.688;23.330;2022-12-07T14:51:46;9.00;99.90
46562;DHT22;32289;42.688;23.330;2022-12-07T14:55:29;8.90;99.90
46562;DHT22;32289;42.688;23.330;2022-12-07T14:59:11;8.80;99.90
46562;DHT22;32289;42.688;23.330;2022-12-07T15:02:52;8.70;99.90
46562;DHT22;32289;42.688;23.330;2022-12-07T15:06:33;8.60;99.90
46562;DHT22;32289;42.688;23.330;2022-12-07T15:10:22;8.40;99.90
46562;DHT22;32289;42.688;23.330;2022-12-07T15:14:03;8.40;99.90
46562;DHT22;32289;42.688;23.330;2022-12-07T15:17:51;8.30;99.90
46562;DHT22;32289;42.688;23.330;2022-12-07T15:21:31;8.30;99.90
46562;DHT22;32289;42.688;23.330;2022-12-07T15:25:13;8.10;99.90
46562;DHT22;32289;42.688;23.330;2022-12-07T15:28:54;8.00;99.90
46562;DHT22;32289;42.688;23.330;2022-12-07T15:32:35;7.90;99.90
46562;DHT22;32289;42.688;23.330;2022-12-07T15:36:22;7.80;99.90
46562;DHT22;32289;42.688;23.330;2022-12-07T15:40:03;7.70;99.90
46562;DHT22;32289;42.688;23.330;2022-12-07T15:43:44;7.50;99.90
46562;DHT22;32289;42.688;23.330;2022-12-07T15:47:44;7.60;99.90
46562;DHT22;32289;42.688;23.330;2022-12-07T15:51:25;7.60;99.90
46562;DHT22;32289;42.688;23.330;2022-12-07T15:55:07;7.60;99.90
46562;DHT22;32289;42.688;23.330;2022-12-07T15:58:47;7.70;99.90
46562;DHT22;32289;42.688;23.330;2022-12-07T16:02:28;7.60;99.90
46562;DHT22;32289;42.688;23.330;2022-12-07T16:06:09;7.50;99.90
46562;DHT22;32289;42.688;23.330;2022-12-07T16:09:50;7.60;99.90
46562;DHT22;32289;42.688;23.330;2022-12-07T16:13:31;7.40;99.90
46562;DHT22;32289;42.688;23.330;2022-12-07T16:17:12;7.30;99.90
46562;DHT22;32289;42.688;23.330;2022-12-07T16:20:52;7.30;99.90
46562;DHT22;32289;42.688;23.330;2022-12-07T16:24:35;7.20;99.90
46562;DHT22;32289;42.688;23.330;2022-12-07T16:28:16;7.10;99.90
46562;DHT22;32289;42.688;23.330;2022-12-07T16:31:57;7.00;99.90
46562;DHT22;32289;42.688;23.330;2022-12-07T16:35:41;7.00;99.90
46562;DHT22;32289;42.688;23.330;2022-12-07T16:39:22;7.10;99.90
46562;DHT22;32289;42.688;23.330;2022-12-07T16:43:03;7.00;99.90
46562;DHT22;32289;42.688;23.330;2022-12-07T16:46:44;6.90;99.90
46562;DHT22;32289;42.688;23.330;2022-12-07T16:50:24;6.80;99.90
46562;DHT22;32289;42.688;23.330;2022-12-07T16:54:05;6.90;99.90
46562;DHT22;32289;42.688;23.330;2022-12-07T16:57:46;6.90;99.90
46562;DHT22;32289;42.688;23.330;2022-12-07T17:01:26;6.90;99.90
46562;DHT22;32289;42.688;23.330;2022-12-07T17:05:08;6.80;99.90
46562;DHT22;32289;42.688;23.330;2022-12-07T17:08:50;6.80;99.90
46562;DHT22;32289;42.688;23.330;2022-12-07T17:12:31;6.70;99.90
46562;DHT22;32289;42.688;23.330;2022-12-07T17:16:12;6.70;99.90
46562;DHT22;32289;42.688;23.330;2022-12-07T17:19:52;6.50;99.90
46562;DHT22;32289;42.688;23.330;2022-12-07T17:23:34;6.40;99.90
46562;DHT22;32289;42.688;23.330;2022-12-07T17:27:14;6.30;99.90
46562;DHT22;32289;42.688;23.330;2022-12-07T17:30:56;6.40;99.90
46562;DHT22;32289;42.688;23.330;2022-12-07T17:34:37;6.20;99.90
46562;DHT22;32289;42.688;23.330;2022-12-07T17:38:19;6.10;99.90
46562;DHT22;32289;42.688;23.330;2022-12-07T17:42:00;6.00;99.90
46562;DHT22;32289;42.688;23.330;2022-12-07T17:46:05;6.10;99.90
46562;DHT22;32289;42.688;23.330;2022-12-07T17:49:46;6.10;99.90
46562;DHT22;32289;42.688;23.330;2022-12-07T17:53:28;6.00;99.90
46562;DHT22;32289;42.688;23.330;2022-12-07T17:57:09;5.90;99.90
46562;DHT22;32289;42.688;23.330;2022-12-07T18:00:50;5.90;99.90
46562;DHT22;32289;42.688;23.330;2022-12-07T18:04:31;5.80;99.90
46562;DHT22;32289;42.688;23.330;2022-12-07T18:08:12;5.70;99.90
46562;DHT22;32289;42.688;23.330;2022-12-07T18:11:52;5.70;99.90
46562;DHT22;32289;42.688;23.330;2022-12-07T18:15:33;5.60;99.90
46562;DHT22;32289;42.688;23.330;2022-12-07T18:19:14;5.70;99.90
46562;DHT22;32289;42.688;23.330;2022-12-07T18:22:56;5.70;99.90
46562;DHT22;32289;42.688;23.330;2022-12-07T18:26:37;5.60;99.90
46562;DHT22;32289;42.688;23.330;2022-12-07T18:30:18;5.60;99.90
46562;DHT22;32289;42.688;23.330;2022-12-07T18:34:01;5.60;99.90
46562;DHT22;32289;42.688;23.330;2022-12-07T18:37:43;5.50;99.90
46562;DHT22;32289;42.688;23.330;2022-12-07T18:41:24;5.50;99.90
46562;DHT22;32289;42.688;23.330;2022-12-07T18:45:05;5.50;99.90
46562;DHT22;32289;42.688;23.330;2022-12-07T18:48:47;5.40;99.90
46562;DHT22;32289;42.688;23.330;2022-12-07T18:52:29;5.40;99.90
46562;DHT22;32289;42.688;23.330;2022-12-07T18:56:21;5.60;99.90
46562;DHT22;32289;42.688;23.330;2022-12-07T19:00:03;5.50;99.90
46562;DHT22;32289;42.688;23.330;2022-12-07T19:03:44;5.50;99.90
46562;DHT22;32289;42.688;23.330;2022-12-07T19:07:25;5.40;99.90
46562;DHT22;32289;42.688;23.330;2022-12-07T19:11:06;5.30;99.90
46562;DHT22;32289;42.688;23.330;2022-12-07T19:15:07;5.40;99.90
46562;DHT22;32289;42.688;23.330;2022-12-07T19:18:48;5.40;99.90
46562;DHT22;32289;42.688;23.330;2022-12-07T19:22:29;5.40;99.90
46562;DHT22;32289;42.688;23.330;2022-12-07T19:26:12;5.30;99.90
46562;DHT22;32289;42.688;23.330;2022-12-07T19:29:52;5.40;99.90
46562;DHT22;32289;42.688;23.330;2022-12-07T19:33:33;5.40;99.90
46562;DHT22;32289;42.688;23.330;2022-12-07T19:37:14;5.40;99.90
46562;DHT22;32289;42.688;23.330;2022-12-07T19:41:06;5.40;99.90
46562;DHT22;32289;42.688;23.330;2022-12-07T19:44:47;5.40;99.90
46562;DHT22;32289;42.688;23.330;2022-12-07T19:48:27;5.30;99.90
46562;DHT22;32289;42.688;23.330;2022-12-07T19:52:10;5.30;99.90
46562;DHT22;32289;42.688;23.330;2022-12-07T19:55:51;5.20;99.90
46562;DHT22;32289;42.688;23.330;2022-12-07T19:59:32;5.10;99.90
46562;DHT22;32289;42.688;23.330;2022-12-07T20:03:13;5.10;99.90
46562;DHT22;32289;42.688;23.330;2022-12-07T20:06:56;5.00;99.90
46562;DHT22;32289;42.688;23.330;2022-12-07T20:10:39;5.00;99.90
46562;DHT22;32289;42.688;23.330;2022-12-07T20:14:20;5.00;99.90
46562;DHT22;32289;42.688;23.330;2022-12-07T20:18:02;5.00;99.90
46562;DHT22;32289;42.688;23.330;2022-12-07T20:21:43;5.00;99.90
46562;DHT22;32289;42.688;23.330;2022-12-07T20:25:24;5.00;99.90
46562;DHT22;32289;42.688;23.330;2022-12-07T20:29:09;5.00;99.90
46562;DHT22;32289;42.688;23.330;2022-12-07T20:32:50;5.00;99.90
46562;DHT22;32289;42.688;23.330;2022-12-07T20:36:30;4.90;99.90
46562;DHT22;32289;42.688;23.330;2022-12-07T20:40:11;4.90;99.90
46562;DHT22;32289;42.688;23.330;2022-12-07T20:43:52;5.00;99.90
46562;DHT22;32289;42.688;23.330;2022-12-07T20:47:35;5.00;99.90
46562;DHT22;32289;42.688;23.330;2022-12-07T20:51:16;4.90;99.90
46562;DHT22;32289;42.688;23.330;2022-12-07T20:54:57;4.90;99.90
46562;DHT22;32289;42.688;23.330;2022-12-07T20:58:37;4.80;99.90
46562;DHT22;32289;42.688;23.330;2022-12-07T21:02:18;4.80;99.90
46562;DHT22;32289;42.688;23.330;2022-12-07T21:06:02;4.80;99.90
46562;DHT22;32289;42.688;23.330;2022-12-07T21:09:46;4.70;99.90
46562;DHT22;32289;42.688;23.330;2022-12-07T21:13:27;4.60;99.90
46562;DHT22;32289;42.688;23.330;2022-12-07T21:17:08;4.50;99.90
46562;DHT22;32289;42.688;23.330;2022-12-07T21:20:49;4.40;99.90
46562;DHT22;32289;42.688;23.330;2022-12-07T21:24:30;4.30;99.90
46562;DHT22;32289;42.688;23.330;2022-12-07T21:28:11;4.30;99.90
46562;DHT22;32289;42.688;23.330;2022-12-07T21:31:51;4.30;99.90
46562;DHT22;32289;42.688;23.330;2022-12-07T21:35:32;4.10;99.90
46562;DHT22;32289;42.688;23.330;2022-12-07T21:39:13;4.10;99.90
46562;DHT22;32289;42.688;23.330;2022-12-07T21:42:54;4.10;99.90
46562;DHT22;32289;42.688;23.330;2022-12-07T21:46:34;4.00;99.90
46562;DHT22;32289;42.688;23.330;2022-12-07T21:50:15;4.10;99.90
46562;DHT22;32289;42.688;23.330;2022-12-07T21:53:58;4.10;99.90
46562;DHT22;32289;42.688;23.330;2022-12-07T21:57:39;4.10;99.90
46562;DHT22;32289;42.688;23.330;2022-12-07T22:01:22;4.30;99.90
46562;DHT22;32289;42.688;23.330;2022-12-07T22:05:03;4.10;99.90
46562;DHT22;32289;42.688;23.330;2022-12-07T22:08:44;4.20;99.90
46562;DHT22;32289;42.688;23.330;2022-12-07T22:12:25;4.10;99.90
46562;DHT22;32289;42.688;23.330;2022-12-07T22:16:06;4.30;99.90
46562;DHT22;32289;42.688;23.330;2022-12-07T22:19:46;4.10;99.90
46562;DHT22;32289;42.688;23.330;2022-12-07T22:23:27;4.20;99.90
46562;DHT22;32289;42.688;23.330;2022-12-07T22:27:10;4.10;99.90
46562;DHT22;32289;42.688;23.330;2022-12-07T22:30:51;4.10;99.90
46562;DHT22;32289;42.688;23.330;2022-12-07T22:34:32;4.00;99.90
46562;DHT22;32289;42.688;23.330;2022-12-07T22:38:12;3.90;99.90
46562;DHT22;32289;42.688;23.330;2022-12-07T22:41:53;4.20;99.90
46562;DHT22;32289;42.688;23.330;2022-12-07T22:45:34;4.00;99.90
46562;DHT22;32289;42.688;23.330;2022-12-07T22:49:14;3.90;99.90
46562;DHT22;32289;42.688;23.330;2022-12-07T22:52:55;4.00;99.90
46562;DHT22;32289;42.688;23.330;2022-12-07T22:56:37;3.80;99.90
46562;DHT22;32289;42.688;23.330;2022-12-07T23:00:18;3.70;99.90
46562;DHT22;32289;42.688;23.330;2022-12-07T23:03:59;3.70;99.90
46562;DHT22;32289;42.688;23.330;2022-12-07T23:07:39;3.80;99.90
46562;DHT22;32289;42.688;23.330;2022-12-07T23:11:22;3.80;99.90
46562;DHT22;32289;42.688;23.330;2022-12-07T23:15:22;3.60;99.90
46562;DHT22;32289;42.688;23.330;2022-12-07T23:19:02;3.60;99.90
46562;DHT22;32289;42.688;23.330;2022-12-07T23:22:43;3.50;99.90
46562;DHT22;32289;42.688;23.330;2022-12-07T23:26:24;3.50;99.90
46562;DHT22;32289;42.688;23.330;2022-12-07T23:30:05;3.40;99.90
46562;DHT22;32289;42.688;23.330;2022-12-07T23:33:46;3.50;99.90
46562;DHT22;32289;42.688;23.330;2022-12-07T23:37:27;3.20;99.90
46562;DHT22;32289;42.688;23.330;2022-12-07T23:41:12;3.50;99.90
46562;DHT22;32289;42.688;23.330;2022-12-07T23:44:53;3.50;99.90
46562;DHT22;32289;42.688;23.330;2022-12-07T23:48:35;3.40;99.90
46562;DHT22;32289;42.688;23.330;2022-12-07T23:52:16;3.40;99.90
46562;DHT22;32289;42.688;23.330;2022-12-07T23:55:57;3.40;99.90
46562;DHT22;32289;42.688;23.330;2022-12-07T23:59:37;3.40;99.90
